Terminal Aerodrome Forecast
Issued by NWS Flagstaff, AZ

Home | Current Version | Previous Version | Text Only | Print | Product List | Glossary On
Versions: 1 2 3 4 5 6 7 8 9 10 11 12 13 14 15 16 17 18 19 20 21 22 23 24 25 26 27 28 29 30 31 32
000
FTUS45 KFGZ 241739
TAFFLG
TAF
KFLG 241739Z 2418/2518 23010G15KT P6SM FEW015 SCT040
      TEMPO 2418/2422 2SM -SHSN BKN015
     FM242200 23011KT 3SM -SHSN BKN015
     FM250300 25007KT P6SM BKN050=

USA.gov is the U.S. government's official web portal to all federal, state and local government web resources and services.